Time;durP1;ratioP1;P1;durP2;ratioP2;P2;SDS_P1;SDS_P2;PMS_P1;PMS_P2;Temp;Humidity;BMP_temperature;BMP_pressure;BME280_temperature;BME280_humidity;BME280_pressure;Samples;Min_cycle;Max_cycle;Signal;HPM_P1;HPM_P2
2022/06/30 00:03:57;;;;;;;4.20;2.35;;;;;;;;;;5111355;27;20827;-72
2022/06/30 00:06:24;;;;;;;4.43;2.50;;;;;;;;;;5110866;28;20496;-73
2022/06/30 00:08:50;;;;;;;7.53;3.05;;;;;;;;;;5111047;28;20024;-73
2022/06/30 00:11:16;;;;;;;5.20;2.95;;;;;;;;;;5111086;28;20028;-73
2022/06/30 00:13:43;;;;;;;4.68;2.70;;;;;;;;;;5110621;28;20027;-73
2022/06/30 00:16:09;;;;;;;6.90;2.83;;;;;;;;;;5110963;28;20050;-72
2022/06/30 00:18:35;;;;;;;7.72;2.78;;;;;;;;;;5110541;28;20047;-72
2022/06/30 00:21:02;;;;;;;6.05;2.95;;;;;;;;;;5111129;28;20028;-74
2022/06/30 00:23:28;;;;;;;5.38;2.80;;;;;;;;;;5110876;28;20123;-72
2022/06/30 00:25:55;;;;;;;5.57;3.10;;;;;;;;;;5110499;28;20085;-73
2022/06/30 00:35:48;;;;;;;4.47;2.47;;;;;;;;;;5111850;27;20384;-72
2022/06/30 00:38:15;;;;;;;6.43;2.97;;;;;;;;;;5111541;28;20085;-72
2022/06/30 00:40:44;;;;;;;4.28;2.63;;;;;;;;;;5110864;28;20034;-75
2022/06/30 00:43:11;;;;;;;4.97;2.92;;;;;;;;;;5111267;28;20066;-73
2022/06/30 00:45:41;;;;;;;4.13;2.65;;;;;;;;;;5111216;28;20034;-74
2022/06/30 00:48:07;;;;;;;5.55;2.95;;;;;;;;;;5110674;28;20080;-74
2022/06/30 00:53:56;;;;;;;5.38;2.70;;;;;;;;;;5111524;27;20973;-72
2022/06/30 00:56:26;;;;;;;7.75;3.00;;;;;;;;;;5111611;28;20032;-72
2022/06/30 01:00:33;;;;;;;7.82;3.20;;;;;;;;;;5111769;27;20418;-72
2022/06/30 01:03:00;;;;;;;7.15;3.25;;;;;;;;;;5111499;28;20023;-72
2022/06/30 01:05:26;;;;;;;6.30;3.30;;;;;;;;;;5111504;28;20403;-72
2022/06/30 01:07:54;;;;;;;5.90;3.05;;;;;;;;;;5110790;28;20024;-73
2022/06/30 01:14:58;;;;;;;7.20;3.20;;;;;;;;;;5111072;28;20104;-73
2022/06/30 01:19:02;;;;;;;6.00;3.20;;;;;;;;;;5111423;27;20397;-73
2022/06/30 01:21:29;;;;;;;6.28;3.30;;;;;;;;;;5111264;28;20444;-73
2022/06/30 01:24:58;;;;;;;5.45;3.17;;;;;;;;;;5111476;27;20194;-73
2022/06/30 01:29:28;;;;;;;5.03;2.92;;;;;;;;;;5111452;27;20392;-73
2022/06/30 01:31:54;;;;;;;4.53;2.55;;;;;;;;;;5109945;28;20028;-74
2022/06/30 01:37:02;;;;;;;4.38;2.60;;;;;;;;;;5111276;27;20573;-73
2022/06/30 01:41:38;;;;;;;5.82;3.10;;;;;;;;;;5110825;27;20432;-72
2022/06/30 01:45:41;;;;;;;4.53;2.90;;;;;;;;;;5111811;27;20585;-73
2022/06/30 01:48:07;;;;;;;4.35;2.63;;;;;;;;;;5111536;28;20027;-73
2022/06/30 01:50:34;;;;;;;4.43;2.47;;;;;;;;;;5110959;28;20024;-73
2022/06/30 01:54:01;;;;;;;3.53;2.72;;;;;;;;;;5112085;27;20396;-72
2022/06/30 01:57:07;;;;;;;5.80;3.28;;;;;;;;;;5111142;27;20786;-73
2022/06/30 02:01:44;;;;;;;5.50;3.00;;;;;;;;;;5111441;27;20415;-73
2022/06/30 02:06:55;;;;;;;6.75;3.00;;;;;;;;;;5111615;28;20499;-73
2022/06/30 02:09:32;;;;;;;4.82;2.80;;;;;;;;;;5111778;27;20969;-73
2022/06/30 02:17:48;;;;;;;4.80;2.88;;;;;;;;;;5112063;27;20396;-73
2022/06/30 02:23:35;;;;;;;5.25;2.83;;;;;;;;;;5111427;27;20422;-73
2022/06/30 02:27:50;;;;;;;5.38;2.42;;;;;;;;;;5111691;27;20540;-73
2022/06/30 02:30:16;;;;;;;4.93;3.20;;;;;;;;;;5111740;28;20032;-73
2022/06/30 02:32:42;;;;;;;6.55;3.60;;;;;;;;;;5110827;28;20031;-73
2022/06/30 02:35:08;;;;;;;6.88;3.33;;;;;;;;;;5111260;28;20055;-74
2022/06/30 02:37:34;;;;;;;5.63;3.42;;;;;;;;;;5111451;28;20038;-73
2022/06/30 02:40:01;;;;;;;5.47;2.97;;;;;;;;;;5110932;28;20051;-72
2022/06/30 02:42:56;;;;;;;4.85;3.17;;;;;;;;;;5111784;27;20392;-73
2022/06/30 02:46:39;;;;;;;5.40;3.33;;;;;;;;;;5111167;27;20396;-73
2022/06/30 02:49:05;;;;;;;4.70;2.78;;;;;;;;;;5111526;28;20095;-73
2022/06/30 02:51:31;;;;;;;5.00;2.80;;;;;;;;;;5111425;28;20051;-73
2022/06/30 02:53:57;;;;;;;5.15;3.08;;;;;;;;;;5110864;28;20145;-72
2022/06/30 02:56:24;;;;;;;5.32;2.90;;;;;;;;;;5111173;28;20093;-72
2022/06/30 02:58:50;;;;;;;5.75;3.17;;;;;;;;;;5111182;28;20044;-72
2022/06/30 03:01:16;;;;;;;6.75;3.53;;;;;;;;;;5110775;28;20502;-72
2022/06/30 03:06:08;;;;;;;6.47;3.30;;;;;;;;;;5112074;27;20831;-73
2022/06/30 03:08:34;;;;;;;8.57;3.40;;;;;;;;;;5111168;28;20116;-73
2022/06/30 03:12:51;;;;;;;8.50;3.63;;;;;;;;;;5173696;27;20126;-73
2022/06/30 03:15:33;;;;;;;7.35;3.60;;;;;;;;;;5111049;27;20403;-73
2022/06/30 03:17:59;;;;;;;9.23;4.18;;;;;;;;;;5111603;28;20448;-73
2022/06/30 03:20:25;;;;;;;6.50;3.50;;;;;;;;;;5111374;28;20433;-73
2022/06/30 03:22:51;;;;;;;6.90;3.55;;;;;;;;;;5110912;28;20102;-73
2022/06/30 03:28:05;;;;;;;6.03;3.42;;;;;;;;;;5111593;27;20389;-73
2022/06/30 03:33:51;;;;;;;7.18;4.00;;;;;;;;;;5111696;27;20674;-73
2022/06/30 03:36:17;;;;;;;6.78;3.20;;;;;;;;;;5111180;28;20036;-73
2022/06/30 03:38:43;;;;;;;6.82;3.90;;;;;;;;;;5111487;28;20031;-73
2022/06/30 03:41:09;;;;;;;7.85;3.75;;;;;;;;;;5111168;28;20027;-73
2022/06/30 03:43:36;;;;;;;6.43;3.78;;;;;;;;;;5110911;28;20044;-73
2022/06/30 03:46:02;;;;;;;4.82;2.90;;;;;;;;;;5111212;28;20034;-73
2022/06/30 03:55:05;;;;;;;7.22;3.45;;;;;;;;;;5111842;27;20961;-72
2022/06/30 03:57:46;;;;;;;5.80;3.33;;;;;;;;;;5111230;27;20380;-72
2022/06/30 04:01:36;;;;;;;7.65;3.65;;;;;;;;;;5111559;27;20393;-72
2022/06/30 04:04:03;;;;;;;9.52;4.22;;;;;;;;;;5110964;28;20113;-72
2022/06/30 04:08:42;;;;;;;8.20;4.05;;;;;;;;;;5111684;27;20569;-72
2022/06/30 04:11:08;;;;;;;7.15;3.65;;;;;;;;;;5110981;28;20049;-72
2022/06/30 04:14:08;;;;;;;6.55;3.65;;;;;;;;;;5111501;27;20532;-72
2022/06/30 04:16:34;;;;;;;5.45;2.97;;;;;;;;;;5111310;28;20031;-72
2022/06/30 04:19:00;;;;;;;6.72;2.90;;;;;;;;;;5110788;28;20020;-72
2022/06/30 04:22:20;;;;;;;5.85;3.33;;;;;;;;;;5112077;27;20450;-73
2022/06/30 04:24:47;;;;;;;5.75;3.10;;;;;;;;;;5110894;28;20019;-72
2022/06/30 04:27:13;;;;;;;6.03;2.97;;;;;;;;;;5111771;28;20020;-73
2022/06/30 04:29:39;;;;;;;6.63;3.30;;;;;;;;;;5127021;28;20440;-73
2022/06/30 04:34:50;;;;;;;6.53;3.00;;;;;;;;;;5111161;28;20069;-72
2022/06/30 04:41:24;;;;;;;7.75;3.38;;;;;;;;;;5111385;27;20884;-72
2022/06/30 04:44:51;;;;;;;5.45;3.38;;;;;;;;;;5112088;27;20560;-72
2022/06/30 04:47:17;;;;;;;6.20;3.38;;;;;;;;;;5110966;28;20478;-72
2022/06/30 04:49:43;;;;;;;6.93;4.00;;;;;;;;;;5111563;28;20152;-72
2022/06/30 04:52:09;;;;;;;5.00;3.20;;;;;;;;;;5111136;28;20038;-73
2022/06/30 04:56:48;;;;;;;11.73;4.18;;;;;;;;;;5111761;27;20418;-72
2022/06/30 04:59:14;;;;;;;8.70;3.13;;;;;;;;;;5111537;28;20020;-72
2022/06/30 05:01:40;;;;;;;5.47;3.45;;;;;;;;;;5110758;28;20024;-73
2022/06/30 05:04:37;;;;;;;5.20;3.25;;;;;;;;;;5111653;27;20396;-74
2022/06/30 05:07:03;;;;;;;4.88;3.00;;;;;;;;;;5110986;28;20462;-76
2022/06/30 05:11:29;;;;;;;6.93;3.28;;;;;;;;;;5111407;27;20969;-76
2022/06/30 05:13:55;;;;;;;7.28;3.60;;;;;;;;;;5110909;28;20031;-76
2022/06/30 05:16:21;;;;;;;6.43;3.03;;;;;;;;;;5111140;28;20016;-76
2022/06/30 05:19:25;;;;;;;5.78;3.45;;;;;;;;;;5152761;27;20404;-76
2022/06/30 05:21:52;;;;;;;6.90;3.15;;;;;;;;;;5133070;28;20031;-75
2022/06/30 05:27:02;;;;;;;7.40;3.40;;;;;;;;;;5116619;28;20029;-76
2022/06/30 05:29:28;;;;;;;6.95;2.97;;;;;;;;;;5112799;28;20115;-76
2022/06/30 05:33:43;;;;;;;5.35;2.58;;;;;;;;;;5109471;27;21097;-70
2022/06/30 05:36:11;;;;;;;8.02;3.28;;;;;;;;;;5092955;28;20052;-71
2022/06/30 05:38:51;;;;;;;6.15;3.33;;;;;;;;;;5109248;27;20790;-72
2022/06/30 05:41:17;;;;;;;5.25;3.00;;;;;;;;;;5089761;28;20056;-70
2022/06/30 05:43:43;;;;;;;5.00;3.30;;;;;;;;;;5095179;28;20102;-71
2022/06/30 05:46:09;;;;;;;5.88;3.20;;;;;;;;;;5109239;28;20098;-72
2022/06/30 05:48:35;;;;;;;5.57;3.35;;;;;;;;;;5090700;28;20051;-72
2022/06/30 05:51:01;;;;;;;5.28;3.00;;;;;;;;;;5087941;28;20021;-73
2022/06/30 05:53:28;;;;;;;4.55;2.72;;;;;;;;;;5089577;28;20058;-72
2022/06/30 05:57:06;;;;;;;7.07;3.35;;;;;;;;;;5110146;27;20430;-72
2022/06/30 05:59:34;;;;;;;5.03;3.10;;;;;;;;;;5105719;28;20054;-72
2022/06/30 06:04:48;;;;;;;5.20;3.00;;;;;;;;;;5090070;27;20782;-70
2022/06/30 06:08:38;;;;;;;9.35;3.55;;;;;;;;;;5108697;27;20432;-72
2022/06/30 06:11:04;;;;;;;5.57;3.10;;;;;;;;;;5097394;28;20074;-70
2022/06/30 06:13:31;;;;;;;5.95;3.17;;;;;;;;;;5092574;28;20020;-72
2022/06/30 06:15:57;;;;;;;5.15;2.78;;;;;;;;;;5096176;28;20495;-72
2022/06/30 06:18:23;;;;;;;6.60;3.30;;;;;;;;;;5106213;28;20564;-70
2022/06/30 06:20:49;;;;;;;4.80;3.10;;;;;;;;;;5108684;28;20035;-71
2022/06/30 06:23:15;;;;;;;5.15;2.90;;;;;;;;;;5089556;28;20054;-69
2022/06/30 06:25:41;;;;;;;7.38;3.17;;;;;;;;;;5096579;28;20020;-69
2022/06/30 06:30:52;;;;;;;5.40;3.08;;;;;;;;;;5077235;28;20086;-70
2022/06/30 06:33:29;;;;;;;4.95;3.20;;;;;;;;;;5069137;28;20938;-69
2022/06/30 06:35:55;;;;;;;6.10;3.00;;;;;;;;;;5069778;28;20058;-71
2022/06/30 06:38:21;;;;;;;4.85;2.90;;;;;;;;;;5066966;28;20016;-71
2022/06/30 06:41:14;;;;;;;7.10;3.22;;;;;;;;;;5107959;27;20449;-70
2022/06/30 06:43:40;;;;;;;5.93;3.30;;;;;;;;;;5109878;28;20111;-71
2022/06/30 06:46:07;;;;;;;8.55;3.17;;;;;;;;;;5109283;28;20038;-71
2022/06/30 06:49:47;;;;;;;6.55;3.40;;;;;;;;;;5108689;27;20485;-73
2022/06/30 06:52:13;;;;;;;5.03;2.80;;;;;;;;;;5106848;28;20028;-71
2022/06/30 06:54:39;;;;;;;4.85;2.75;;;;;;;;;;5107524;28;20028;-71
2022/06/30 06:57:06;;;;;;;4.72;2.83;;;;;;;;;;5107383;28;20028;-72
2022/06/30 06:59:34;;;;;;;5.05;2.95;;;;;;;;;;5105732;28;20020;-71
2022/06/30 07:02:00;;;;;;;6.75;3.20;;;;;;;;;;5105769;28;20066;-69
2022/06/30 07:04:26;;;;;;;5.90;3.22;;;;;;;;;;5105803;28;20028;-72
2022/06/30 07:07:14;;;;;;;5.63;3.63;;;;;;;;;;5107305;27;20384;-71
2022/06/30 07:09:40;;;;;;;7.65;3.55;;;;;;;;;;5107649;28;20030;-72
2022/06/30 07:12:07;;;;;;;5.57;3.13;;;;;;;;;;5108985;28;20111;-72
2022/06/30 07:16:37;;;;;;;7.47;3.35;;;;;;;;;;5048520;28;20393;-69
2022/06/30 07:19:03;;;;;;;4.68;3.22;;;;;;;;;;5048876;28;20029;-70
2022/06/30 07:21:29;;;;;;;6.28;3.42;;;;;;;;;;5048069;28;20022;-71
2022/06/30 07:23:55;;;;;;;4.43;2.95;;;;;;;;;;5047288;28;20493;-71
2022/06/30 07:26:21;;;;;;;6.75;3.58;;;;;;;;;;5053376;28;20049;-70
2022/06/30 07:28:48;;;;;;;5.45;3.20;;;;;;;;;;5066259;28;20481;-71
2022/06/30 07:31:15;;;;;;;6.65;3.20;;;;;;;;;;5067038;28;20110;-74
2022/06/30 07:33:42;;;;;;;5.22;2.88;;;;;;;;;;5064001;28;20025;-73
2022/06/30 07:36:09;;;;;;;6.05;3.33;;;;;;;;;;5055383;28;20033;-73
2022/06/30 07:38:35;;;;;;;6.57;3.63;;;;;;;;;;5048832;28;20060;-73
2022/06/30 07:41:01;;;;;;;7.18;3.25;;;;;;;;;;5049971;28;20554;-73
2022/06/30 07:43:28;;;;;;;4.95;3.08;;;;;;;;;;5049522;28;20478;-73
2022/06/30 07:45:54;;;;;;;6.10;3.53;;;;;;;;;;5049664;28;20021;-72
2022/06/30 07:48:20;;;;;;;5.47;3.25;;;;;;;;;;5048405;28;20017;-73
2022/06/30 07:50:46;;;;;;;7.63;3.17;;;;;;;;;;5059723;28;20024;-73
2022/06/30 07:53:12;;;;;;;5.05;2.97;;;;;;;;;;5068629;28;20021;-73
2022/06/30 07:55:38;;;;;;;4.47;2.63;;;;;;;;;;5068405;28;20457;-72
2022/06/30 07:58:04;;;;;;;4.82;2.72;;;;;;;;;;5069331;28;20062;-72
2022/06/30 08:00:31;;;;;;;4.50;2.45;;;;;;;;;;5068609;28;20078;-72
2022/06/30 08:02:57;;;;;;;5.38;2.80;;;;;;;;;;5054450;28;20094;-72
2022/06/30 08:05:23;;;;;;;5.05;2.83;;;;;;;;;;5049431;28;20024;-72
2022/06/30 08:07:49;;;;;;;4.78;2.85;;;;;;;;;;5049375;28;20040;-72
2022/06/30 08:10:16;;;;;;;4.68;2.65;;;;;;;;;;5047202;28;20032;-72
2022/06/30 08:12:43;;;;;;;4.68;2.78;;;;;;;;;;5047290;28;20100;-70
2022/06/30 08:15:09;;;;;;;5.80;2.92;;;;;;;;;;5047105;28;20108;-72
2022/06/30 08:17:36;;;;;;;6.10;3.22;;;;;;;;;;5042584;28;20075;-72
2022/06/30 08:20:02;;;;;;;4.57;2.60;;;;;;;;;;5040757;28;20394;-68
2022/06/30 08:22:28;;;;;;;7.90;2.97;;;;;;;;;;5025232;28;20452;-70
2022/06/30 08:24:55;;;;;;;5.63;2.97;;;;;;;;;;5026685;28;20371;-70
2022/06/30 08:27:21;;;;;;;4.97;2.80;;;;;;;;;;5018824;28;20466;-70
2022/06/30 08:29:48;;;;;;;5.65;3.42;;;;;;;;;;5015410;28;20033;-71
2022/06/30 08:32:14;;;;;;;5.60;3.08;;;;;;;;;;5013407;28;20030;-70
2022/06/30 08:34:41;;;;;;;6.22;3.03;;;;;;;;;;5031386;28;20025;-67
2022/06/30 08:37:08;;;;;;;5.55;3.10;;;;;;;;;;5035206;28;20033;-69
2022/06/30 08:42:22;;;;;;;5.72;3.10;;;;;;;;;;5038811;28;20045;-70
2022/06/30 08:47:34;;;;;;;5.28;2.83;;;;;;;;;;5028478;28;20056;-69
2022/06/30 08:50:00;;;;;;;4.70;2.97;;;;;;;;;;5025102;28;20057;-67
2022/06/30 08:52:29;;;;;;;4.65;3.03;;;;;;;;;;5015012;28;20026;-67
2022/06/30 08:54:56;;;;;;;5.22;3.00;;;;;;;;;;5015387;28;20026;-70
2022/06/30 08:57:22;;;;;;;5.38;3.15;;;;;;;;;;5026593;28;20095;-69
2022/06/30 08:59:49;;;;;;;5.40;3.30;;;;;;;;;;5032853;28;20029;-70
2022/06/30 09:02:15;;;;;;;6.50;2.97;;;;;;;;;;5027913;28;20036;-69
2022/06/30 09:04:41;;;;;;;5.18;3.05;;;;;;;;;;5020806;28;20063;-70
2022/06/30 09:07:07;;;;;;;5.25;2.72;;;;;;;;;;5028414;28;20040;-68
2022/06/30 09:09:33;;;;;;;5.47;3.30;;;;;;;;;;5028761;28;20022;-69
2022/06/30 09:11:59;;;;;;;4.95;3.00;;;;;;;;;;5016747;28;20029;-68
2022/06/30 09:14:52;;;;;;;5.78;3.00;;;;;;;;;;5029014;28;20662;-69
2022/06/30 09:17:22;;;;;;;5.50;2.90;;;;;;;;;;5028164;28;20034;-69
2022/06/30 09:19:51;;;;;;;4.80;2.70;;;;;;;;;;5024083;28;20768;-68
2022/06/30 09:22:18;;;;;;;7.10;2.75;;;;;;;;;;5015265;28;20045;-68
2022/06/30 09:24:44;;;;;;;3.97;3.00;;;;;;;;;;5012737;28;20022;-69
2022/06/30 09:27:12;;;;;;;5.35;2.83;;;;;;;;;;5021368;28;20036;-69
2022/06/30 09:29:48;;;;;;;5.15;2.85;;;;;;;;;;5050852;28;20036;-69
2022/06/30 09:32:16;;;;;;;9.68;2.83;;;;;;;;;;5022212;28;20016;-68
2022/06/30 09:34:43;;;;;;;4.00;2.72;;;;;;;;;;5045688;28;20029;-69
2022/06/30 09:37:20;;;;;;;5.00;2.85;;;;;;;;;;5043245;28;20496;-69
2022/06/30 09:39:47;;;;;;;4.32;2.83;;;;;;;;;;5052221;28;20025;-69
2022/06/30 09:42:13;;;;;;;3.17;2.53;;;;;;;;;;5035574;28;20040;-70
2022/06/30 09:44:40;;;;;;;5.20;2.50;;;;;;;;;;5037132;28;20056;-69
2022/06/30 09:47:10;;;;;;;5.28;2.78;;;;;;;;;;5042283;28;20021;-69
2022/06/30 09:49:39;;;;;;;4.80;3.00;;;;;;;;;;5037956;28;20025;-70
2022/06/30 09:52:16;;;;;;;4.32;2.60;;;;;;;;;;5044252;28;20025;-69
2022/06/30 09:54:53;;;;;;;5.28;2.65;;;;;;;;;;5017564;28;20069;-70
2022/06/30 09:57:19;;;;;;;4.10;2.58;;;;;;;;;;5040896;28;20044;-69
2022/06/30 09:59:45;;;;;;;5.72;2.65;;;;;;;;;;5035327;28;20026;-69
2022/06/30 10:02:11;;;;;;;4.80;2.70;;;;;;;;;;5049047;28;20093;-69
2022/06/30 10:04:54;;;;;;;5.72;2.75;;;;;;;;;;5040677;28;20032;-70
2022/06/30 10:07:21;;;;;;;4.63;2.40;;;;;;;;;;5039024;28;20482;-71
2022/06/30 10:10:00;;;;;;;4.50;2.40;;;;;;;;;;5046744;28;20090;-71
2022/06/30 10:12:30;;;;;;;3.78;2.30;;;;;;;;;;5039217;28;20119;-71
2022/06/30 10:14:56;;;;;;;6.38;2.65;;;;;;;;;;5050296;28;20127;-71
2022/06/30 10:17:24;;;;;;;5.60;2.33;;;;;;;;;;5040440;28;20029;-69
2022/06/30 10:19:52;;;;;;;4.28;2.40;;;;;;;;;;5035988;28;20028;-71
2022/06/30 10:22:19;;;;;;;4.00;2.70;;;;;;;;;;5038692;28;20371;-70
2022/06/30 10:25:03;;;;;;;6.18;2.78;;;;;;;;;;5039087;28;20017;-70
2022/06/30 10:27:40;;;;;;;6.75;2.45;;;;;;;;;;5033337;28;20036;-72
2022/06/30 10:30:14;;;;;;;3.47;2.40;;;;;;;;;;5045000;28;20033;-72
2022/06/30 10:32:49;;;;;;;4.15;2.28;;;;;;;;;;5041850;28;20426;-70
2022/06/30 10:35:16;;;;;;;3.88;2.60;;;;;;;;;;5031393;28;20033;-69
2022/06/30 10:38:02;;;;;;;4.72;2.33;;;;;;;;;;5030631;28;20028;-70
2022/06/30 10:40:46;;;;;;;4.15;2.40;;;;;;;;;;5029569;28;20354;-72
2022/06/30 10:43:16;;;;;;;5.30;2.53;;;;;;;;;;5031076;28;20029;-73
2022/06/30 10:46:02;;;;;;;3.72;2.40;;;;;;;;;;5029515;28;20021;-69
2022/06/30 10:48:49;;;;;;;4.78;2.45;;;;;;;;;;5029979;28;20092;-71
2022/06/30 10:51:15;;;;;;;4.18;2.08;;;;;;;;;;5032336;28;20056;-71
2022/06/30 10:53:41;;;;;;;5.15;2.53;;;;;;;;;;5032487;28;20040;-72
2022/06/30 10:56:08;;;;;;;4.35;2.50;;;;;;;;;;5028229;28;20092;-73
2022/06/30 10:58:34;;;;;;;5.50;2.30;;;;;;;;;;5031387;28;20026;-72
2022/06/30 11:01:04;;;;;;;4.68;2.33;;;;;;;;;;5031488;28;20393;-72
2022/06/30 11:03:31;;;;;;;4.05;2.38;;;;;;;;;;5031776;28;20067;-74
2022/06/30 11:05:58;;;;;;;5.28;2.60;;;;;;;;;;5030476;28;20413;-72
2022/06/30 11:08:36;;;;;;;4.82;2.60;;;;;;;;;;5026933;28;20437;-71
2022/06/30 11:11:23;;;;;;;3.72;2.50;;;;;;;;;;5027729;28;20025;-73
2022/06/30 11:14:14;;;;;;;5.88;2.60;;;;;;;;;;5019494;28;20578;-71
2022/06/30 11:16:40;;;;;;;5.65;2.80;;;;;;;;;;5026139;28;20522;-73
2022/06/30 11:19:17;;;;;;;6.95;2.70;;;;;;;;;;5031102;28;20060;-73
2022/06/30 11:21:44;;;;;;;5.57;2.30;;;;;;;;;;5032258;28;20025;-72
2022/06/30 11:24:10;;;;;;;3.38;2.25;;;;;;;;;;5033083;28;20021;-72
2022/06/30 11:29:23;;;;;;;7.95;4.30;;;;;;;;;;5032905;28;20446;-73
2022/06/30 11:31:50;;;;;;;17.38;13.65;;;;;;;;;;5021653;28;20026;-73
2022/06/30 11:34:19;;;;;;;25.52;22.77;;;;;;;;;;5028901;28;20025;-71
2022/06/30 11:36:45;;;;;;;15.02;12.00;;;;;;;;;;5031843;28;20029;-72
2022/06/30 11:39:14;;;;;;;24.85;19.75;;;;;;;;;;5032933;28;20021;-72
2022/06/30 11:44:26;;;;;;;22.23;19.23;;;;;;;;;;5032897;28;20022;-73
2022/06/30 11:46:55;;;;;;;18.63;14.68;;;;;;;;;;5032850;28;20026;-69
2022/06/30 11:49:22;;;;;;;12.93;9.70;;;;;;;;;;5032464;28;20021;-69
2022/06/30 11:51:49;;;;;;;4.57;2.97;;;;;;;;;;5032969;28;20029;-71
2022/06/30 11:54:15;;;;;;;6.43;3.17;;;;;;;;;;5032123;28;20076;-70
2022/06/30 11:56:48;;;;;;;7.28;4.68;;;;;;;;;;5031765;28;20041;-71
2022/06/30 11:59:15;;;;;;;6.43;4.22;;;;;;;;;;5026536;28;20029;-71
2022/06/30 12:01:41;;;;;;;4.93;2.80;;;;;;;;;;5033896;28;20048;-71
2022/06/30 12:04:14;;;;;;;6.22;3.72;;;;;;;;;;5032430;28;20030;-72
2022/06/30 12:06:40;;;;;;;4.78;3.28;;;;;;;;;;5034449;28;20024;-70
2022/06/30 12:09:06;;;;;;;6.60;4.35;;;;;;;;;;5034089;28;20022;-71
2022/06/30 12:11:32;;;;;;;6.97;4.25;;;;;;;;;;5034421;28;20033;-71
2022/06/30 12:13:58;;;;;;;6.68;3.17;;;;;;;;;;5034189;28;20053;-70
2022/06/30 12:16:25;;;;;;;5.35;3.20;;;;;;;;;;5033545;28;20132;-71
2022/06/30 12:18:52;;;;;;;4.07;2.33;;;;;;;;;;5034382;28;20076;-71
2022/06/30 12:21:18;;;;;;;5.50;3.08;;;;;;;;;;5036435;28;20052;-71
2022/06/30 12:23:45;;;;;;;6.57;2.45;;;;;;;;;;5034690;28;20023;-71
2022/06/30 12:26:11;;;;;;;5.30;2.40;;;;;;;;;;5036293;28;20025;-71
2022/06/30 12:28:47;;;;;;;4.63;2.95;;;;;;;;;;5036456;28;20417;-71
2022/06/30 12:31:23;;;;;;;4.55;3.10;;;;;;;;;;5035852;28;20033;-71
2022/06/30 12:33:50;;;;;;;6.10;3.92;;;;;;;;;;5033385;28;20358;-70
2022/06/30 12:36:17;;;;;;;6.38;2.83;;;;;;;;;;5036302;28;20061;-71
2022/06/30 12:38:43;;;;;;;4.65;2.65;;;;;;;;;;5034313;28;20448;-70
2022/06/30 12:41:09;;;;;;;4.10;2.20;;;;;;;;;;5035994;28;20031;-69
2022/06/30 12:44:01;;;;;;;11.70;3.40;;;;;;;;;;5035929;28;20092;-71
2022/06/30 12:46:37;;;;;;;4.57;2.33;;;;;;;;;;5034302;28;20049;-71
2022/06/30 12:49:03;;;;;;;4.57;2.30;;;;;;;;;;5035732;28;20036;-70
2022/06/30 12:51:35;;;;;;;7.00;3.63;;;;;;;;;;5035430;28;20029;-70
2022/06/30 12:54:16;;;;;;;6.82;3.25;;;;;;;;;;5035592;28;20060;-68
2022/06/30 12:56:50;;;;;;;4.43;2.42;;;;;;;;;;5018054;28;20040;-69
2022/06/30 12:59:17;;;;;;;6.20;3.20;;;;;;;;;;5035315;28;20033;-69
2022/06/30 13:01:44;;;;;;;5.22;3.58;;;;;;;;;;5034324;28;20374;-69
2022/06/30 13:04:16;;;;;;;6.85;3.20;;;;;;;;;;5035504;28;20057;-69
2022/06/30 13:06:44;;;;;;;7.65;3.33;;;;;;;;;;5033777;28;20480;-70
2022/06/30 13:09:12;;;;;;;5.45;2.80;;;;;;;;;;5035426;28;20048;-69
2022/06/30 13:11:45;;;;;;;4.22;2.30;;;;;;;;;;5035575;28;20072;-69
2022/06/30 13:14:11;;;;;;;5.07;3.13;;;;;;;;;;5034749;28;20017;-69
2022/06/30 13:16:37;;;;;;;3.13;2.15;;;;;;;;;;5035241;28;20044;-69
2022/06/30 13:19:07;;;;;;;4.38;2.88;;;;;;;;;;5035326;28;20104;-69
2022/06/30 13:21:44;;;;;;;3.90;2.77;;;;;;;;;;5033948;28;20498;-68
2022/06/30 13:24:10;;;;;;;4.10;2.10;;;;;;;;;;5035340;28;20037;-69
2022/06/30 13:27:05;;;;;;;3.90;2.80;;;;;;;;;;5034597;28;20022;-69
2022/06/30 13:29:51;;;;;;;3.85;2.13;;;;;;;;;;5032423;28;20025;-71
2022/06/30 13:32:17;;;;;;;4.25;2.58;;;;;;;;;;5034976;28;20039;-70
2022/06/30 13:34:43;;;;;;;5.22;2.67;;;;;;;;;;5034495;28;20036;-69
2022/06/30 13:37:09;;;;;;;4.03;2.45;;;;;;;;;;5033659;28;20116;-71
2022/06/30 13:39:36;;;;;;;3.47;2.20;;;;;;;;;;5034808;28;20026;-69
2022/06/30 13:42:02;;;;;;;5.40;2.35;;;;;;;;;;5034375;28;20048;-70
2022/06/30 13:44:28;;;;;;;4.75;2.28;;;;;;;;;;5033460;28;20021;-68
2022/06/30 13:47:06;;;;;;;5.85;3.13;;;;;;;;;;5034613;28;20492;-68
2022/06/30 13:49:32;;;;;;;3.13;1.88;;;;;;;;;;5033162;28;20071;-69
2022/06/30 13:51:59;;;;;;;3.58;2.15;;;;;;;;;;5034481;28;20555;-68
2022/06/30 13:54:25;;;;;;;4.22;1.67;;;;;;;;;;5034202;28;20030;-69
2022/06/30 13:56:51;;;;;;;2.88;1.92;;;;;;;;;;5034537;28;20036;-68
2022/06/30 13:59:17;;;;;;;3.22;1.80;;;;;;;;;;5033188;28;20064;-67
2022/06/30 14:01:43;;;;;;;4.53;2.08;;;;;;;;;;5034069;28;20029;-71
2022/06/30 14:04:09;;;;;;;2.78;1.92;;;;;;;;;;5034289;28;20048;-70
2022/06/30 14:06:35;;;;;;;4.32;2.03;;;;;;;;;;5034292;28;20064;-69
2022/06/30 14:09:02;;;;;;;3.53;2.22;;;;;;;;;;5032586;28;20071;-68
2022/06/30 14:11:29;;;;;;;2.25;1.80;;;;;;;;;;5033321;28;20374;-69
2022/06/30 14:13:55;;;;;;;3.05;1.95;;;;;;;;;;5034217;28;20029;-70
2022/06/30 14:16:21;;;;;;;5.18;1.90;;;;;;;;;;5032269;28;20049;-70
2022/06/30 14:18:48;;;;;;;3.05;1.80;;;;;;;;;;5034218;28;20056;-70
2022/06/30 14:21:14;;;;;;;3.70;1.85;;;;;;;;;;5033999;28;20021;-70
2022/06/30 14:23:40;;;;;;;3.70;2.08;;;;;;;;;;5033530;28;20017;-69
2022/06/30 14:26:06;;;;;;;4.05;2.08;;;;;;;;;;5033575;28;20104;-70
2022/06/30 14:28:32;;;;;;;3.55;2.13;;;;;;;;;;5034024;28;20018;-69
2022/06/30 14:30:58;;;;;;;3.95;1.65;;;;;;;;;;5033672;28;20084;-70
2022/06/30 14:33:24;;;;;;;3.25;2.20;;;;;;;;;;5033931;28;20661;-70
2022/06/30 14:35:51;;;;;;;2.58;1.80;;;;;;;;;;5033867;28;20473;-70
2022/06/30 14:38:17;;;;;;;3.88;1.88;;;;;;;;;;5033378;28;20017;-70
2022/06/30 14:40:43;;;;;;;4.55;1.63;;;;;;;;;;5033775;28;20026;-70
2022/06/30 14:43:11;;;;;;;3.88;1.75;;;;;;;;;;5033761;28;20029;-70
2022/06/30 14:45:37;;;;;;;3.10;1.92;;;;;;;;;;5033690;28;20382;-70
2022/06/30 14:48:03;;;;;;;2.90;1.70;;;;;;;;;;5033646;28;20027;-70
2022/06/30 14:50:29;;;;;;;4.50;2.20;;;;;;;;;;5033929;28;20026;-71
2022/06/30 14:52:56;;;;;;;3.33;1.90;;;;;;;;;;5033214;28;20079;-71
2022/06/30 14:55:22;;;;;;;3.75;1.92;;;;;;;;;;5032278;28;20432;-70
2022/06/30 14:57:49;;;;;;;3.65;1.40;;;;;;;;;;5033175;28;20030;-70
2022/06/30 15:00:17;;;;;;;3.80;1.90;;;;;;;;;;5033565;28;20025;-70
2022/06/30 15:02:44;;;;;;;3.17;1.60;;;;;;;;;;5033421;28;20036;-70
2022/06/30 15:05:10;;;;;;;3.95;1.70;;;;;;;;;;5033095;28;20024;-70
2022/06/30 15:07:36;;;;;;;2.28;1.30;;;;;;;;;;5033588;28;20022;-69
2022/06/30 15:10:04;;;;;;;2.95;1.50;;;;;;;;;;5033477;28;20068;-71
2022/06/30 15:12:30;;;;;;;3.92;2.00;;;;;;;;;;5033056;28;20059;-70
2022/06/30 15:14:58;;;;;;;2.88;1.48;;;;;;;;;;5033040;28;20100;-69
2022/06/30 15:17:25;;;;;;;2.45;1.40;;;;;;;;;;5033263;28;20364;-71
2022/06/30 15:19:51;;;;;;;2.75;1.83;;;;;;;;;;5032832;28;20021;-71
2022/06/30 15:25:01;;;;;;;2.85;1.83;;;;;;;;;;5033330;28;20125;-71
2022/06/30 15:27:29;;;;;;;4.13;2.13;;;;;;;;;;5032918;28;20080;-70
2022/06/30 15:29:55;;;;;;;3.13;1.90;;;;;;;;;;5033196;28;20046;-71
2022/06/30 15:32:23;;;;;;;2.55;1.67;;;;;;;;;;5033193;28;20077;-71
2022/06/30 15:34:49;;;;;;;3.05;1.75;;;;;;;;;;5032715;28;20054;-71
2022/06/30 15:37:16;;;;;;;2.92;1.80;;;;;;;;;;5035175;28;20033;-71
2022/06/30 15:39:42;;;;;;;3.03;1.98;;;;;;;;;;5037289;28;20021;-71
2022/06/30 15:42:10;;;;;;;4.30;2.28;;;;;;;;;;5036679;28;20026;-71
2022/06/30 15:44:39;;;;;;;4.35;1.60;;;;;;;;;;5037215;28;20024;-71
2022/06/30 15:47:05;;;;;;;2.95;1.45;;;;;;;;;;5036671;28;20024;-71
2022/06/30 15:49:32;;;;;;;2.40;1.60;;;;;;;;;;5037020;28;20021;-71
2022/06/30 15:52:01;;;;;;;3.08;1.77;;;;;;;;;;5037110;28;20032;-70
2022/06/30 15:54:28;;;;;;;2.80;1.70;;;;;;;;;;5036385;28;20029;-69
2022/06/30 15:56:54;;;;;;;2.90;1.42;;;;;;;;;;5036712;28;20029;-68
2022/06/30 15:59:20;;;;;;;1.95;1.65;;;;;;;;;;5036749;28;20025;-70
2022/06/30 16:01:47;;;;;;;2.58;1.65;;;;;;;;;;5036390;28;20482;-70
2022/06/30 16:04:13;;;;;;;3.95;1.80;;;;;;;;;;5033906;28;20075;-69
2022/06/30 16:06:39;;;;;;;3.10;1.60;;;;;;;;;;5036565;28;20026;-71
2022/06/30 16:09:05;;;;;;;5.05;2.30;;;;;;;;;;5036560;28;20033;-70
2022/06/30 16:11:32;;;;;;;5.45;2.35;;;;;;;;;;5036534;28;20072;-70
2022/06/30 16:14:01;;;;;;;6.43;1.80;;;;;;;;;;5036519;28;20079;-70
2022/06/30 16:16:28;;;;;;;9.30;2.50;;;;;;;;;;5035846;28;20490;-69
2022/06/30 16:18:54;;;;;;;4.68;2.70;;;;;;;;;;5036471;28;20067;-70
2022/06/30 16:21:20;;;;;;;5.45;2.95;;;;;;;;;;5036420;28;20029;-69
2022/06/30 16:23:46;;;;;;;5.82;3.08;;;;;;;;;;5036134;28;20053;-70
2022/06/30 16:26:12;;;;;;;5.95;3.15;;;;;;;;;;5036413;28;20049;-70
2022/06/30 16:28:41;;;;;;;8.77;3.08;;;;;;;;;;5036271;28;20029;-71
2022/06/30 16:31:08;;;;;;;7.57;3.50;;;;;;;;;;5035950;28;20481;-72
2022/06/30 16:33:35;;;;;;;8.10;4.03;;;;;;;;;;5036217;28;20152;-73
2022/06/30 16:36:01;;;;;;;4.50;3.10;;;;;;;;;;5036100;28;20092;-72
2022/06/30 16:38:27;;;;;;;6.47;3.33;;;;;;;;;;5035726;28;20030;-71
2022/06/30 16:40:54;;;;;;;5.47;3.00;;;;;;;;;;5036008;28;20469;-70
2022/06/30 16:43:21;;;;;;;9.40;4.72;;;;;;;;;;5035908;28;20359;-69